• Join FlightAware (Why Join?)
  • Login
  • US Flag 
03:53PM EDT


 

Airport Tracker/Info


-or-


 

Live Flight TrackerFlight Track Log ✈ ACA7033 ✈ 09-Dec-2013 ✈ CYVR - CYEG

Flight Track Log - Related Links

Times and Time Zones

All times are in EST time to prevent confusion due to time zone crossing. See the ACA7033 flight status page for this flight to view local times or setup timezone preferences in your user account.

Time Position Orientation Groundspeed Altitude Reporting Facility
EST Latitude Longitude Course Direction KTS MPH feet Rate Location/Type
02:18AM 49.1667 -123.1667 52° Northeast 120 138 700  Level Vancouver Center
02:19AM 49.1667 -123.1167 90° East 180 207 2,800 2,400 Climbing Vancouver Center
02:20AM 49.1500 -123.0000 102° East 230 265 5,500 2,580 Climbing Vancouver Center
02:21AM 49.1833 -122.9000 63° Northeast 270 311 8,000 2,760 Climbing Vancouver Center
02:22AM 49.2500 -122.8500 26° Northeast 270 311 11,100 2,160 Climbing Vancouver Center
02:23AM 49.3333 -122.8000 21° North 350 403 12,400 1,920 Climbing Vancouver Center
02:24AM 49.5946 -122.3901 52° Northeast  Level Estimated
02:24AM 49.4167 -122.7167 33° Northeast 380 437 15,000  Level Vancouver Center
02:25AM 49.5000 -122.5833 46° Northeast 410 472 17,700 2,040 Climbing Vancouver Center
02:26AM 49.5667 -122.4667 49° Northeast 430 495 19,100 1,860 Climbing Vancouver Center
02:27AM 49.6500 -122.3000 52° Northeast 440 506 21,500 2,040 Climbing Vancouver Center
02:28AM 49.7333 -122.1500 49° Northeast 460 529 23,200 1,560 Climbing Vancouver Center
02:29AM 49.8000 -121.9833 58° Northeast 470 541 24,700 1,740 Climbing Vancouver Center
02:30AM 49.8833 -121.8333 49° Northeast 470 541 26,700 3,120 Climbing Vancouver Center
02:31AM 49.9667 -121.6667 52° Northeast 440 506 30,900 2,100 Climbing Vancouver Center
02:32AM 50.0333 -121.5333 52° Northeast 430 495 31,000  Climbing Vancouver Center
02:33AM 50.1167 -121.3833 49° Northeast 440 506 31,000  Level Vancouver Center
02:34AM 50.2000 -121.2167 52° Northeast 450 518 31,000  Level Vancouver Center
02:35AM 50.2500 -121.0833 60° Northeast 450 518 31,000  Level Vancouver Center
02:36AM 50.3333 -120.9167 52° Northeast 450 518 31,000  Level Vancouver Center
02:37AM 50.4167 -120.7667 49° Northeast 450 518 31,000  Level Vancouver Center
02:38AM 50.4833 -120.6000 58° Northeast 450 518 31,000  Level Vancouver Center
02:39AM 50.5500 -120.4333 58° Northeast 450 518 31,000  Level Vancouver Center
02:40AM 50.6333 -120.3000 45° Northeast 450 518 31,000  Level Vancouver Center
02:41AM 50.7167 -120.1333 52° Northeast 450 518 31,000  Level Vancouver Center
02:42AM 50.8000 -119.9667 52° Northeast 450 518 31,000  Level Vancouver Center
02:43AM 50.8500 -119.8333 59° Northeast 450 518 31,000  Level Vancouver Center
02:44AM 50.9333 -119.6333 56° Northeast 450 518 31,000  Level Vancouver Center
02:45AM 51.0167 -119.5000 45° Northeast 450 518 31,000  Level Vancouver Center
02:46AM 51.0833 -119.3333 57° Northeast 460 529 31,000  Level Vancouver Center
02:47AM 51.1667 -119.1667 51° Northeast 460 529 31,000  Level Vancouver Center
02:48AM 51.2333 -119.0000 57° Northeast 460 529 31,000  Level Vancouver Center
02:49AM 51.3000 -118.8333 57° Northeast 450 518 31,000  Level Vancouver Center
02:50AM 51.3833 -118.6833 48° Northeast 450 518 31,000  Level Vancouver Center
02:51AM 51.4500 -118.4833 62° Northeast 460 529 31,000  Level Vancouver Center
02:52AM 51.5333 -118.3500 45° Northeast 460 529 31,000  Level Vancouver Center
02:53AM 51.5833 -118.2500 51° Northeast 450 518 31,000  Level Edmonton Center
02:54AM 51.6500 -118.0833 57° Northeast 450 518 31,000  Level Edmonton Center
02:55AM 51.7167 -117.9167 57° Northeast 460 529 31,000  Level Edmonton Center
02:56AM 51.8000 -117.7333 54° Northeast 460 529 31,000  Level Edmonton Center
02:57AM 51.8667 -117.5667 57° Northeast 460 529 31,000  Level Edmonton Center
02:58AM 51.9333 -117.4000 57° Northeast 460 529 31,000  Level Edmonton Center
02:59AM 52.0000 -117.2500 54° Northeast 450 518 31,000  Level Edmonton Center
03:00AM 52.0667 -117.0500 61° Northeast 450 518 31,000  Level Edmonton Center
03:01AM 52.1500 -116.9000 48° Northeast 450 518 31,000  Level Edmonton Center
03:02AM 52.2333 -116.7000 56° Northeast 460 529 31,000  Level Edmonton Center
03:03AM 52.3000 -116.5500 54° Northeast 460 529 31,000  Level Edmonton Center
03:04AM 52.3667 -116.3833 57° Northeast 460 529 31,000  Level Edmonton Center
03:05AM 52.4333 -116.2000 59° Northeast 470 541 31,000  Level Edmonton Center
03:06AM 52.5000 -116.0167 59° Northeast 470 541 31,000 -360 Level Edmonton Center
03:07AM 52.6000 -115.8167 50° Northeast 460 529 30,300 -960 Descending Edmonton Center
03:08AM 52.6667 -115.6333 59° Northeast 470 541 29,100 -1,800 Descending Edmonton Center
03:09AM 52.7333 -115.4667 57° Northeast 470 541 26,800 -2,520 Descending Edmonton Center
03:10AM 52.7833 -115.2500 69° East 480 552 24,100 -2,700 Descending Edmonton Center
03:11AM 52.8167 -115.0667 73° East 460 529 21,400 -2,820 Descending Edmonton Center
03:12AM 52.8667 -114.8833 66° East 440 506 18,500 -2,760 Descending Edmonton Center
03:13AM 52.9167 -114.6833 67° East 420 483 15,900 -2,880 Descending Edmonton Center
03:14AM 52.9667 -114.5333 61° Northeast 400 460 12,800 -2,940 Descending Edmonton Center
03:15AM 53.0000 -114.3667 72° East 360 414 10,100 -2,220 Descending Edmonton Center
03:16AM 53.0333 -114.2333 67° East 280 322 8,400 -1,500 Descending Edmonton Center
03:17AM 53.0667 -114.1333 61° Northeast 270 311 7,200 -1,440 Descending Edmonton Center
03:18AM 53.1000 -114.0167 65° Northeast 270 311 5,600 -1,080 Descending Edmonton Center
03:19AM 53.1167 -113.9167 74° East 230 265 5,100 -360 Descending Edmonton Center
03:20AM 53.1333 -113.8333 72° East 210 242 4,900 -120 Descending Edmonton Center
03:21AM 53.1667 -113.7500 56° Northeast 190 219 4,900 -360 Level Edmonton Center
03:22AM 53.2000 -113.7000 42° Northeast 150 173 4,200 -720 Descending Edmonton Center
03:23AM 53.2333 -113.6833 17° North 120 138 3,500 -720 Descending Edmonton Center
03:24AM 53.2667 -113.6333 42° Northeast 110 127 2,800 -660 Descending Edmonton Center
03:25AM 53.3000 -113.6167 338° Northwest 110 127 2,200 -600 Descending Edmonton Center
03:26AM 53.3000 -113.5667 338° Northwest  Level FlightAware Approximate
03:33AM 53.3097 -113.5797 338° Northwest  Level Estimated
03:34AM 53.3097 -113.5797 338° Northwest  Level Estimated
03:35AM 53.3097 -113.5797 338° Northwest  Level Estimated